Time;durP1;ratioP1;P1;durP2;ratioP2;P2;SDS_P1;SDS_P2;PMS_P1;PMS_P2;Temp;Humidity;BMP_temperature;BMP_pressure;BME280_temperature;BME280_humidity;BME280_pressure;Samples;Min_cycle;Max_cycle;Signal;HPM_P1;HPM_P2
2022/06/18 00:00:46;;;;;;;2.92;2.72;;;;;;;15.29;79.34;99504.28;1682613;84;21011;-71
2022/06/18 00:03:14;;;;;;;5.17;3.45;;;;;;;15.25;79.35;99504.39;1683500;85;20903;-72
2022/06/18 00:05:43;;;;;;;4.15;3.62;;;;;;;15.23;79.32;99505.08;1683487;85;20963;-71
2022/06/18 00:08:17;;;;;;;5.10;3.62;;;;;;;15.21;79.40;99501.27;1664064;85;21524;-72
2022/06/18 00:10:45;;;;;;;4.37;3.58;;;;;;;15.21;79.46;99501.77;1682792;84;21163;-71
2022/06/18 00:16:06;;;;;;;4.05;3.67;;;;;;;15.16;79.29;99497.02;1683515;85;20916;-71
2022/06/18 00:18:33;;;;;;;5.00;3.58;;;;;;;15.12;79.21;99489.05;1683645;85;21492;-71
2022/06/18 00:21:00;;;;;;;5.50;3.80;;;;;;;15.12;79.18;99493.61;1682546;84;21507;-70
2022/06/18 00:23:28;;;;;;;5.17;3.60;;;;;;;15.11;79.18;99494.11;1683261;84;21571;-71
2022/06/18 00:25:55;;;;;;;3.87;3.33;;;;;;;15.12;79.14;99493.61;1683443;84;20971;-71
2022/06/18 00:28:25;;;;;;;3.10;2.90;;;;;;;15.12;79.12;99490.92;1683640;85;20931;-71
2022/06/18 00:30:52;;;;;;;3.77;3.12;;;;;;;15.12;79.11;99493.61;1681321;84;21542;-72
2022/06/18 00:33:20;;;;;;;3.47;3.00;;;;;;;15.11;78.96;99483.91;1683539;85;20955;-71
2022/06/18 00:35:49;;;;;;;3.83;3.35;;;;;;;15.10;78.88;99492.95;1683752;85;21975;-71
2022/06/18 00:38:21;;;;;;;3.65;3.33;;;;;;;15.09;78.82;99496.68;1683780;85;20911;-71
2022/06/18 00:40:48;;;;;;;5.60;3.05;;;;;;;15.09;78.73;99492.66;1681835;84;21632;-72
2022/06/18 00:43:27;;;;;;;9.23;3.45;;;;;;;15.06;78.69;99491.71;1679774;85;20963;-72
2022/06/18 00:46:07;;;;;;;5.67;3.37;;;;;;;15.05;78.63;99491.39;1682631;84;20961;-71
2022/06/18 00:48:51;;;;;;;3.58;3.27;;;;;;;15.05;78.49;99496.23;1682593;84;21198;-71
2022/06/18 00:51:40;;;;;;;6.10;3.15;;;;;;;15.04;78.48;99493.77;1662805;85;20987;-72
2022/06/18 00:54:12;;;;;;;3.72;3.30;;;;;;;15.04;78.40;99501.81;1683106;85;20936;-71
2022/06/18 00:56:43;;;;;;;7.75;3.62;;;;;;;15.02;78.29;99505.17;1674179;84;21570;-72
2022/06/18 00:59:44;;;;;;;3.90;3.60;;;;;;;14.99;78.23;99498.89;1668946;85;21639;-72
2022/06/18 01:02:30;;;;;;;5.50;3.00;;;;;;;14.96;78.12;99496.10;1680150;84;20987;-72
2022/06/18 01:04:57;;;;;;;3.27;3.00;;;;;;;14.93;78.09;99501.02;1683569;85;20995;-72
2022/06/18 01:07:31;;;;;;;3.37;3.15;;;;;;;14.91;78.13;99507.92;1683135;84;21037;-72
2022/06/18 01:09:58;;;;;;;3.12;2.83;;;;;;;14.90;78.10;99507.59;1683560;85;20998;-72
2022/06/18 01:12:25;;;;;;;3.50;3.17;;;;;;;14.89;78.05;99505.92;1681278;84;21001;-72
2022/06/18 01:15:00;;;;;;;3.52;2.75;;;;;;;14.89;78.02;99512.63;1683554;85;21255;-71
2022/06/18 01:17:29;;;;;;;4.40;3.22;;;;;;;14.90;77.90;99514.29;1681961;83;20942;-71
2022/06/18 01:19:56;;;;;;;3.37;3.10;;;;;;;14.92;77.78;99515.42;1683636;85;20991;-71
2022/06/18 01:22:54;;;;;;;3.67;3.02;;;;;;;14.90;77.67;99514.29;1683041;84;21015;-72
2022/06/18 01:25:22;;;;;;;4.85;3.05;;;;;;;14.88;77.67;99510.16;1683583;85;21022;-71
2022/06/18 01:27:51;;;;;;;2.98;2.67;;;;;;;14.87;77.62;99512.51;1676073;85;21813;-72
2022/06/18 01:30:23;;;;;;;3.45;3.10;;;;;;;14.86;77.54;99509.00;1663810;84;20955;-72
2022/06/18 01:32:54;;;;;;;3.20;2.90;;;;;;;14.84;77.54;99501.17;1664849;85;21007;-72
2022/06/18 01:35:23;;;;;;;3.85;3.15;;;;;;;14.84;77.52;99505.70;1676350;85;20951;-72
2022/06/18 01:37:57;;;;;;;4.05;2.98;;;;;;;14.82;77.47;99507.24;1682550;84;21057;-72
2022/06/18 01:40:48;;;;;;;3.25;2.95;;;;;;;14.79;77.46;99502.27;1676094;85;21076;-71
2022/06/18 01:43:17;;;;;;;3.50;3.20;;;;;;;14.78;77.39;99499.81;1680640;85;20875;-71
2022/06/18 01:45:44;;;;;;;3.67;3.37;;;;;;;14.77;77.30;99507.01;1683456;85;20959;-70
2022/06/18 01:48:24;;;;;;;3.35;3.10;;;;;;;14.76;77.26;99505.34;1683504;85;21517;-72
2022/06/18 01:51:00;;;;;;;3.62;3.30;;;;;;;14.76;77.20;99498.64;1683398;84;20943;-71
2022/06/18 01:53:33;;;;;;;4.28;3.75;;;;;;;14.74;77.14;99494.01;1682160;84;21154;-71
2022/06/18 01:56:05;;;;;;;3.27;3.08;;;;;;;14.73;77.11;99496.36;1683553;83;20947;-71
2022/06/18 01:58:55;;;;;;;4.03;3.70;;;;;;;14.71;77.09;99494.39;1676147;85;20987;-71
2022/06/18 02:01:26;;;;;;;3.50;3.20;;;;;;;14.68;77.05;99495.28;1682009;84;20970;-71
2022/06/18 02:03:58;;;;;;;3.02;2.77;;;;;;;14.65;77.12;99500.52;1662725;84;21366;-71
2022/06/18 02:06:26;;;;;;;4.22;3.60;;;;;;;14.65;77.14;99499.19;1683625;83;21163;-72
2022/06/18 02:08:53;;;;;;;3.67;3.37;;;;;;;14.64;77.12;99500.22;1683746;85;21034;-71
2022/06/18 02:11:21;;;;;;;3.80;3.47;;;;;;;14.61;77.05;99492.58;1682871;84;21492;-72
2022/06/18 02:14:03;;;;;;;4.67;3.00;;;;;;;14.58;77.02;99500.16;1683693;85;20932;-72
2022/06/18 02:16:33;;;;;;;3.55;3.12;;;;;;;14.53;77.14;99491.39;1681833;83;20980;-71
2022/06/18 02:18:59;;;;;;;3.90;3.50;;;;;;;14.49;77.24;99491.47;1670268;86;21319;-71
2022/06/18 02:21:25;;;;;;;4.42;4.00;;;;;;;14.45;77.31;99494.20;1644699;86;20963;-72
2022/06/18 02:23:54;;;;;;;4.30;3.33;;;;;;;14.45;77.52;99498.22;1602168;88;21019;-71
2022/06/18 02:26:21;;;;;;;3.52;3.22;;;;;;;14.48;77.57;99490.31;1686579;84;20994;-72
2022/06/18 02:28:54;;;;;;;3.60;3.30;;;;;;;14.51;77.58;99491.27;1627895;87;21012;-70
2022/06/18 02:31:22;;;;;;;3.45;3.15;;;;;;;14.54;77.57;99498.41;1686222;84;21516;-71
2022/06/18 02:33:56;;;;;;;5.25;3.47;;;;;;;14.58;77.49;99501.50;1626995;88;20949;-71
2022/06/18 02:36:31;;;;;;;3.85;3.47;;;;;;;14.61;77.44;99501.95;1686983;85;21013;-71
2022/06/18 02:39:32;;;;;;;4.42;3.70;;;;;;;14.63;77.41;99502.58;1629206;88;21030;-72
2022/06/18 02:42:05;;;;;;;4.17;3.30;;;;;;;14.65;77.35;99508.55;1580715;88;21129;-72
2022/06/18 02:44:32;;;;;;;3.45;3.15;;;;;;;14.69;77.29;99509.00;1619455;88;21809;-73
2022/06/18 02:47:06;;;;;;;3.62;3.33;;;;;;;14.73;77.33;99515.09;1686652;85;20982;-72
2022/06/18 02:49:36;;;;;;;4.33;3.90;;;;;;;14.77;77.46;99508.34;1627898;87;21031;-71
2022/06/18 02:52:04;;;;;;;4.17;3.77;;;;;;;14.86;77.42;99511.67;1655380;85;21007;-71
2022/06/18 02:54:31;;;;;;;6.62;4.17;;;;;;;14.94;77.40;99506.70;1602225;88;21612;-71
2022/06/18 02:56:58;;;;;;;5.90;4.12;;;;;;;15.03;77.36;99510.86;1627491;88;21170;-72
2022/06/18 02:59:25;;;;;;;4.22;3.83;;;;;;;15.14;77.26;99515.66;1627810;87;21589;-72
2022/06/18 03:01:52;;;;;;;4.20;3.80;;;;;;;15.24;77.14;99512.10;1627508;88;21031;-71
2022/06/18 03:04:18;;;;;;;5.47;3.83;;;;;;;15.36;76.91;99513.17;1627890;88;20967;-71
2022/06/18 03:06:48;;;;;;;4.87;4.47;;;;;;;15.49;76.72;99519.16;1664465;83;21410;-71
2022/06/18 03:09:14;;;;;;;5.33;4.15;;;;;;;15.62;76.47;99516.48;1687713;85;22102;-71
2022/06/18 03:14:29;;;;;;;5.30;4.83;;;;;;;15.92;75.78;99517.31;1588611;88;21011;-72
2022/06/18 03:16:55;;;;;;;6.50;5.10;;;;;;;16.12;75.03;99517.84;1627249;87;21019;-70
2022/06/18 03:19:35;;;;;;;5.53;4.97;;;;;;;16.28;74.32;99516.11;1636263;87;21043;-71
2022/06/18 03:22:10;;;;;;;7.22;5.60;;;;;;;16.46;73.47;99515.80;1635858;87;21159;-73
2022/06/18 03:24:36;;;;;;;6.83;5.15;;;;;;;16.63;72.35;99511.68;1636065;87;20979;-72
2022/06/18 03:27:04;;;;;;;9.13;5.33;;;;;;;16.82;71.65;99514.55;1636158;87;20955;-71
2022/06/18 03:29:30;;;;;;;7.45;5.08;;;;;;;17.01;71.15;99513.18;1643145;86;21096;-72
2022/06/18 03:31:57;;;;;;;5.22;4.72;;;;;;;17.23;70.33;99514.55;1629673;87;21041;-72
2022/06/18 03:34:26;;;;;;;8.10;4.90;;;;;;;17.46;69.34;99518.09;1636081;87;21666;-72
2022/06/18 03:36:53;;;;;;;7.60;4.72;;;;;;;17.68;68.36;99519.46;1635903;87;21005;-71
2022/06/18 03:39:21;;;;;;;5.05;4.55;;;;;;;17.94;67.49;99517.69;1636101;87;21525;-72
2022/06/18 03:41:48;;;;;;;6.53;5.10;;;;;;;18.35;66.39;99522.84;1635187;87;21028;-71
2022/06/18 03:44:15;;;;;;;5.80;5.12;;;;;;;18.97;64.57;99518.40;1636309;87;21442;-73
2022/06/18 03:46:43;;;;;;;7.15;5.87;;;;;;;19.60;62.65;99519.77;1636069;87;21725;-71
2022/06/18 03:49:23;;;;;;;6.40;5.53;;;;;;;20.20;60.55;99515.17;1621541;87;21087;-72
2022/06/18 03:51:49;;;;;;;6.85;5.28;;;;;;;20.82;58.83;99511.03;1621545;86;20971;-71
2022/06/18 03:54:16;;;;;;;7.15;5.65;;;;;;;21.47;56.73;99508.97;1625035;87;21517;-71
2022/06/18 03:56:42;;;;;;;7.30;5.58;;;;;;;22.04;54.83;99498.98;1636081;87;20987;-71
2022/06/18 03:59:11;;;;;;;6.72;4.92;;;;;;;22.60;53.27;99501.28;1636127;87;21667;-72
2022/06/18 04:01:40;;;;;;;7.05;5.10;;;;;;;23.19;51.45;99507.33;1622924;86;20908;-71
2022/06/18 04:04:08;;;;;;;6.40;4.97;;;;;;;23.74;49.41;99511.30;1624827;88;20964;-71
2022/06/18 04:06:40;;;;;;;7.90;4.67;;;;;;;24.21;48.19;99510.17;1660000;83;21458;-72
2022/06/18 04:09:14;;;;;;;5.15;4.65;;;;;;;24.76;46.73;99508.98;1651498;86;20999;-71
2022/06/18 04:11:41;;;;;;;5.03;4.53;;;;;;;25.28;45.31;99509.88;1658805;86;21152;-71
2022/06/18 04:14:08;;;;;;;8.53;4.58;;;;;;;25.85;44.03;99507.12;1659662;86;21438;-71
2022/06/18 04:16:53;;;;;;;7.40;5.20;;;;;;;26.38;42.76;99503.94;1659788;86;21011;-71
2022/06/18 04:19:21;;;;;;;6.53;5.00;;;;;;;26.99;41.47;99502.55;1683423;83;21484;-71
2022/06/18 04:21:49;;;;;;;7.35;6.08;;;;;;;27.55;40.04;99509.52;1682837;84;21001;-70
2022/06/18 04:24:16;;;;;;;6.25;4.90;;;;;;;27.91;38.68;99496.47;1683533;85;21421;-73
2022/06/18 04:26:45;;;;;;;6.25;4.80;;;;;;;28.18;38.35;99500.16;1676302;85;21628;-72
2022/06/18 04:29:13;;;;;;;5.50;4.62;;;;;;;28.58;37.43;99498.98;1683588;85;20912;-73
2022/06/18 04:31:40;;;;;;;5.33;4.83;;;;;;;29.00;36.61;99496.42;1682921;84;21052;-72
2022/06/18 04:34:07;;;;;;;6.25;4.33;;;;;;;29.42;35.73;99503.92;1683594;85;20908;-72
2022/06/18 04:36:38;;;;;;;5.92;4.25;;;;;;;29.84;35.09;99499.84;1650398;85;21156;-72
2022/06/18 04:39:18;;;;;;;4.42;4.03;;;;;;;30.27;34.24;99501.91;1675633;85;21514;-71
2022/06/18 04:41:47;;;;;;;5.70;4.60;;;;;;;30.62;33.31;99501.11;1656786;84;21492;-72
2022/06/18 04:44:15;;;;;;;8.25;4.42;;;;;;;30.82;33.02;99507.05;1676208;85;20869;-72
2022/06/18 04:46:45;;;;;;;4.70;4.22;;;;;;;31.18;32.51;99511.38;1636938;86;21061;-72
2022/06/18 04:49:12;;;;;;;5.58;5.00;;;;;;;31.57;31.83;99515.02;1688963;85;21299;-72
2022/06/18 04:51:39;;;;;;;5.15;4.60;;;;;;;31.83;31.19;99516.66;1682984;83;21089;-71
2022/06/18 04:54:05;;;;;;;5.62;5.12;;;;;;;32.08;30.69;99510.60;1683319;84;20956;-72
2022/06/18 04:56:33;;;;;;;7.67;5.53;;;;;;;32.30;30.38;99513.39;1683617;85;21389;-71
2022/06/18 04:59:00;;;;;;;8.90;5.25;;;;;;;32.62;29.90;99516.46;1683620;85;20920;-71
2022/06/18 05:01:29;;;;;;;7.95;5.53;;;;;;;32.82;29.67;99518.16;1682375;84;21234;-72
2022/06/18 05:04:08;;;;;;;7.25;5.20;;;;;;;33.08;29.19;99523.02;1596618;89;21524;-73
2022/06/18 05:06:40;;;;;;;6.65;5.37;;;;;;;33.31;28.92;99513.55;1682577;85;20935;-72
2022/06/18 05:09:24;;;;;;;5.20;4.47;;;;;;;33.65;28.42;99515.63;1683533;85;21667;-72
2022/06/18 05:11:59;;;;;;;8.23;5.60;;;;;;;34.14;27.95;99514.67;1675627;85;20935;-72
2022/06/18 05:14:40;;;;;;;7.37;5.33;;;;;;;34.70;27.14;99519.78;1647966;85;21424;-72
2022/06/18 05:17:14;;;;;;;5.72;5.22;;;;;;;35.16;26.75;99518.44;1674608;85;20904;-72
2022/06/18 05:19:41;;;;;;;6.37;5.65;;;;;;;35.60;25.80;99521.83;1692837;84;21549;-72
2022/06/18 05:22:09;;;;;;;6.97;6.25;;;;;;;35.78;25.39;99521.96;1688933;84;21433;-72
2022/06/18 05:24:37;;;;;;;8.48;7.62;;;;;;;36.11;25.34;99521.50;1640177;85;20896;-72
2022/06/18 05:27:05;;;;;;;7.60;6.67;;;;;;;36.59;24.83;99528.45;1639332;87;21511;-70
2022/06/18 05:29:32;;;;;;;9.28;5.92;;;;;;;36.92;24.08;99527.88;1696111;84;20903;-72
2022/06/18 05:31:59;;;;;;;5.55;5.05;;;;;;;36.97;24.19;99533.23;1695107;84;21062;-72
2022/06/18 05:34:28;;;;;;;6.42;5.33;;;;;;;37.42;23.54;99531.23;1695115;84;21006;-72
2022/06/18 05:36:55;;;;;;;7.17;6.42;;;;;;;37.71;23.23;99533.77;1693272;84;21010;-72
2022/06/18 05:39:22;;;;;;;7.35;6.25;;;;;;;38.01;22.90;99533.53;1693208;83;21231;-72
2022/06/18 05:41:49;;;;;;;7.80;5.87;;;;;;;38.35;22.60;99531.61;1691847;83;20923;-73
2022/06/18 05:44:16;;;;;;;7.35;6.25;;;;;;;38.74;22.38;99536.33;1693412;84;20957;-73
2022/06/18 05:46:44;;;;;;;7.53;5.87;;;;;;;39.36;21.79;99532.01;1692798;84;21580;-70
2022/06/18 05:49:12;;;;;;;7.42;5.75;;;;;;;39.83;21.14;99525.82;1693333;84;20991;-72
2022/06/18 05:51:40;;;;;;;8.28;6.55;;;;;;;40.15;20.72;99534.11;1692857;84;21369;-72
2022/06/18 05:54:07;;;;;;;8.48;5.87;;;;;;;40.46;20.52;99529.20;1692771;84;20893;-72
2022/06/18 05:56:47;;;;;;;7.42;5.53;;;;;;;40.85;20.06;99534.17;1683846;83;21077;-73
2022/06/18 05:59:16;;;;;;;7.60;5.92;;;;;;;41.17;19.81;99534.17;1697189;83;20880;-72
2022/06/18 06:01:44;;;;;;;7.42;6.37;;;;;;;41.48;19.49;99533.73;1692214;83;20948;-70
2022/06/18 06:04:11;;;;;;;6.47;4.00;;;;;;;41.76;19.27;99532.80;1691732;84;21133;-71
2022/06/18 06:06:38;;;;;;;4.40;3.47;;;;;;;42.10;18.56;99535.89;1691458;84;21027;-68
2022/06/18 06:09:05;;;;;;;6.78;4.17;;;;;;;42.29;18.07;99532.95;1691297;84;20968;-72
2022/06/18 06:11:32;;;;;;;4.85;3.37;;;;;;;42.65;17.68;99539.83;1692037;84;21097;-70
2022/06/18 06:14:01;;;;;;;6.25;5.60;;;;;;;42.91;17.35;99534.11;1691937;84;21031;-69
2022/06/18 06:16:28;;;;;;;9.85;7.30;;;;;;;43.04;17.33;99538.86;1691786;84;21270;-69
2022/06/18 06:18:57;;;;;;;6.17;4.58;;;;;;;43.16;17.52;99534.37;1674563;85;21024;-67
2022/06/18 06:21:24;;;;;;;5.72;3.55;;;;;;;43.09;16.88;99534.90;1669090;86;21496;-68
2022/06/18 06:23:50;;;;;;;15.40;8.40;;;;;;;42.77;16.82;99535.36;1681598;84;21612;-69
2022/06/18 06:26:24;;;;;;;7.35;6.25;;;;;;;42.77;17.06;99535.94;1668335;86;21485;-68
2022/06/18 06:28:50;;;;;;;5.58;4.33;;;;;;;42.69;17.32;99535.66;1667971;86;21203;-72
2022/06/18 06:31:18;;;;;;;5.37;4.10;;;;;;;42.92;16.91;99532.94;1657783;86;21081;-70
2022/06/18 06:33:45;;;;;;;6.87;4.85;;;;;;;43.22;16.55;99539.02;1668485;86;21053;-71
2022/06/18 06:36:12;;;;;;;5.97;4.80;;;;;;;43.32;16.37;99531.34;1672071;85;21006;-70
2022/06/18 06:38:39;;;;;;;6.53;5.42;;;;;;;43.65;16.08;99529.78;1654667;86;21410;-70
2022/06/18 06:41:16;;;;;;;6.87;5.83;;;;;;;43.93;16.21;99530.61;1668862;86;21248;-70
2022/06/18 06:43:43;;;;;;;5.15;3.50;;;;;;;44.26;15.78;99529.59;1660761;84;21600;-71
2022/06/18 06:46:12;;;;;;;4.58;3.30;;;;;;;44.00;15.51;99532.03;1675051;84;21454;-71
2022/06/18 06:48:41;;;;;;;8.60;4.25;;;;;;;43.84;15.58;99532.94;1639844;87;21070;-71
2022/06/18 06:51:19;;;;;;;5.10;4.45;;;;;;;44.02;15.65;99529.64;1646244;85;21541;-72
2022/06/18 06:53:46;;;;;;;5.67;5.08;;;;;;;44.32;15.43;99530.83;1637717;86;21832;-73
2022/06/18 06:59:00;;;;;;;6.87;5.37;;;;;;;44.81;15.27;99532.41;1668691;86;21026;-73
2022/06/18 07:01:26;;;;;;;8.65;7.75;;;;;;;45.02;14.58;99522.66;1639374;87;21095;-71
2022/06/18 07:03:53;;;;;;;9.38;8.18;;;;;;;45.00;14.74;99529.87;1642951;86;21002;-74
2022/06/18 07:06:21;;;;;;;7.65;6.72;;;;;;;45.02;14.90;99529.67;1673822;83;21581;-71
2022/06/18 07:08:47;;;;;;;9.13;6.65;;;;;;;45.16;14.86;99530.29;1668706;84;21496;-71
2022/06/18 07:11:14;;;;;;;8.78;4.87;;;;;;;45.13;15.01;99528.28;1668283;85;21647;-72
2022/06/18 07:13:41;;;;;;;6.55;5.22;;;;;;;45.09;14.84;99530.27;1668312;84;21087;-73
2022/06/18 07:16:12;;;;;;;7.80;5.70;;;;;;;44.97;14.72;99525.05;1662587;86;20892;-72
2022/06/18 07:18:40;;;;;;;6.25;5.03;;;;;;;44.73;14.38;99521.77;1666861;83;21163;-72
2022/06/18 07:21:12;;;;;;;5.58;5.03;;;;;;;44.54;14.65;99517.91;1659770;85;20896;-71
2022/06/18 07:23:39;;;;;;;6.53;4.30;;;;;;;44.73;14.59;99520.37;1651642;86;20880;-72
2022/06/18 07:26:06;;;;;;;6.50;4.65;;;;;;;44.78;14.09;99526.99;1640739;86;21103;-69
2022/06/18 07:28:32;;;;;;;8.70;4.35;;;;;;;44.09;14.69;99527.67;1644349;86;21003;-75
2022/06/18 07:31:00;;;;;;;4.97;3.75;;;;;;;44.33;15.15;99525.41;1657189;86;21253;-74
2022/06/18 07:33:27;;;;;;;5.00;4.10;;;;;;;45.03;14.37;99524.86;1646503;86;20963;-72
2022/06/18 07:35:54;;;;;;;4.92;4.20;;;;;;;45.33;13.96;99525.30;1652900;86;20971;-73
2022/06/18 07:38:21;;;;;;;5.37;3.42;;;;;;;45.25;13.47;99528.71;1649637;85;21031;-74
2022/06/18 07:40:52;;;;;;;3.80;3.37;;;;;;;44.93;13.58;99529.84;1673658;85;20917;-78
2022/06/18 07:43:34;;;;;;;4.25;3.70;;;;;;;44.93;13.19;99528.44;1643850;86;21867;-73
2022/06/18 07:46:02;;;;;;;4.47;3.60;;;;;;;44.85;13.30;99524.01;1654316;86;21430;-72
2022/06/18 07:48:28;;;;;;;3.02;2.58;;;;;;;44.91;13.59;99524.64;1654292;86;20995;-73
2022/06/18 07:50:55;;;;;;;6.72;3.62;;;;;;;45.26;13.37;99523.91;1654412;86;21051;-73
2022/06/18 07:53:23;;;;;;;9.43;8.63;;;;;;;45.80;12.92;99526.27;1654220;86;21107;-73
2022/06/18 07:55:51;;;;;;;4.95;3.65;;;;;;;46.17;12.74;99527.80;1654259;86;21378;-73
2022/06/18 07:58:18;;;;;;;4.45;2.77;;;;;;;45.96;12.89;99530.86;1654226;86;20966;-73
2022/06/18 08:00:44;;;;;;;2.70;2.37;;;;;;;45.46;13.12;99529.30;1654281;86;20920;-73
2022/06/18 08:03:14;;;;;;;1.60;1.50;;;;;;;43.86;13.94;99534.75;1648581;86;21002;-73
2022/06/18 08:05:43;;;;;;;2.95;1.37;;;;;;;43.58;13.59;99528.34;1641859;85;20958;-73
2022/06/18 08:08:09;;;;;;;2.70;0.90;;;;;;;43.98;13.15;99528.83;1654229;85;21262;-73
2022/06/18 08:10:37;;;;;;;2.22;0.80;;;;;;;44.42;12.87;99534.27;1654202;85;20968;-73
2022/06/18 08:13:04;;;;;;;3.90;1.10;;;;;;;44.79;12.48;99530.61;1654267;85;21011;-73
2022/06/18 08:15:30;;;;;;;1.17;0.80;;;;;;;45.13;12.28;99531.09;1654304;85;20971;-72
2022/06/18 08:17:59;;;;;;;0.98;0.88;;;;;;;45.54;11.83;99532.30;1654302;85;20904;-73
2022/06/18 08:20:26;;;;;;;1.37;0.90;;;;;;;45.42;11.75;99537.53;1653000;86;21323;-73
2022/06/18 08:22:55;;;;;;;1.12;0.90;;;;;;;45.38;11.47;99534.72;1652699;86;21140;-71
2022/06/18 08:25:24;;;;;;;2.33;0.85;;;;;;;45.24;11.47;99536.08;1645041;85;21024;-72
2022/06/18 08:27:50;;;;;;;1.52;0.85;;;;;;;45.48;11.73;99535.31;1640795;86;20951;-72
2022/06/18 08:30:17;;;;;;;1.47;1.10;;;;;;;46.00;11.48;99532.27;1652903;86;21011;-74
2022/06/18 08:32:45;;;;;;;2.00;1.60;;;;;;;46.25;11.38;99539.22;1652821;86;21126;-73
2022/06/18 08:35:12;;;;;;;1.72;0.90;;;;;;;46.22;11.20;99531.59;1652817;86;21553;-73
2022/06/18 08:37:38;;;;;;;1.42;1.30;;;;;;;45.71;11.54;99532.91;1652868;86;21493;-72
2022/06/18 08:40:34;;;;;;;1.77;1.05;;;;;;;45.35;11.75;99527.91;1652770;85;20995;-73
2022/06/18 08:42:57;;;;;;;3.45;3.25;;;;;;;45.65;11.47;99530.33;1638362;85;20960;-73
2022/06/18 08:45:40;;;;;;;1.20;1.10;;;;;;;45.83;11.40;99530.28;1636161;86;21526;-74
2022/06/18 08:48:30;;;;;;;0.90;0.90;;;;;;;45.96;11.22;99526.64;1652750;86;21449;-74
2022/06/18 08:51:17;;;;;;;1.77;1.20;;;;;;;45.94;11.43;99520.59;1639071;86;20983;-74
2022/06/18 08:53:51;;;;;;;1.72;1.00;;;;;;;46.14;11.52;99527.20;1652862;85;21542;-73
2022/06/18 08:56:47;;;;;;;1.62;1.12;;;;;;;45.54;11.78;99532.30;1652954;86;20960;-73
2022/06/18 08:59:57;;;;;;;1.90;0.82;;;;;;;43.48;12.70;99534.08;1659598;85;21167;-73
2022/06/18 09:02:30;;;;;;;1.10;0.75;;;;;;;42.70;13.23;99533.08;1657396;85;20982;-73
2022/06/18 09:05:06;;;;;;;0.88;0.68;;;;;;;43.07;12.97;99531.10;1659803;85;20999;-73
2022/06/18 09:07:41;;;;;;;2.02;0.62;;;;;;;43.87;12.82;99528.77;1659896;86;20963;-73
2022/06/18 09:10:45;;;;;;;0.53;0.53;;;;;;;44.89;12.06;99536.06;1584712;86;20993;-73
2022/06/18 09:13:19;;;;;;;2.17;0.90;;;;;;;45.26;11.43;99528.92;1659755;86;21999;-74
2022/06/18 09:15:51;;;;;;;1.57;0.90;;;;;;;44.78;11.58;99514.38;1659779;86;20899;-73
2022/06/18 09:18:36;;;;;;;1.92;1.55;;;;;;;44.66;11.92;99520.95;1659946;86;20900;-74
2022/06/18 09:21:12;;;;;;;3.17;2.80;;;;;;;45.25;11.85;99518.08;1643034;86;21552;-74
2022/06/18 09:23:56;;;;;;;1.55;1.17;;;;;;;45.54;11.37;99518.86;1659942;86;21446;-73
2022/06/18 09:26:28;;;;;;;2.12;0.90;;;;;;;45.77;11.01;99520.05;1643288;86;21213;-73
2022/06/18 09:29:01;;;;;;;0.95;0.60;;;;;;;46.09;10.67;99512.16;1659929;86;21003;-73
2022/06/18 09:31:33;;;;;;;1.02;0.50;;;;;;;46.49;10.33;99514.44;1659992;86;20955;-72
2022/06/18 09:34:07;;;;;;;3.80;0.72;;;;;;;46.73;9.94;99510.69;1642579;86;21018;-73
2022/06/18 09:36:43;;;;;;;2.37;0.70;;;;;;;46.63;9.98;99518.56;1660050;86;21063;-72
2022/06/18 09:39:18;;;;;;;;;;;;;;;46.62;10.24;99509.94;1645220;86;21454;-73
2022/06/18 09:42:13;;;;;;;1.35;0.70;;;;;;;46.81;10.05;99505.80;1660079;86;20087;-75
2022/06/18 09:44:57;;;;;;;3.22;0.70;;;;;;;47.09;10.03;99506.42;1660070;86;20944;-74
2022/06/18 09:47:29;;;;;;;1.37;0.80;;;;;;;46.88;9.99;99502.97;1659785;85;20908;-74
2022/06/18 09:49:55;;;;;;;1.75;0.70;;;;;;;44.70;11.08;99506.33;1659874;86;20991;-71
2022/06/18 09:52:32;;;;;;;4.95;4.60;;;;;;;44.19;11.70;99514.95;1659841;86;21201;-74
2022/06/18 09:55:08;;;;;;;0.98;0.98;;;;;;;44.00;11.63;99499.22;1659061;86;20943;-74
2022/06/18 09:57:37;;;;;;;1.30;0.62;;;;;;;43.49;11.96;99502.06;1659923;86;21012;-71
2022/06/18 10:00:10;;;;;;;0.55;0.55;;;;;;;42.43;12.67;99498.20;1659815;86;20955;-74
2022/06/18 10:02:45;;;;;;;1.27;0.40;;;;;;;40.95;13.78;99507.09;1659969;86;20908;-74
2022/06/18 10:08:08;;;;;;;1.57;1.10;;;;;;;38.09;16.16;99508.38;1660133;86;21417;-73
2022/06/18 10:10:35;;;;;;;2.92;0.85;;;;;;;37.08;17.42;99512.20;1660022;86;21027;-74
2022/06/18 10:13:03;;;;;;;0.93;0.70;;;;;;;36.41;18.19;99513.93;1659842;86;21042;-73
2022/06/18 10:15:30;;;;;;;0.50;0.50;;;;;;;35.68;18.47;99512.67;1659814;86;20995;-73
2022/06/18 10:18:35;;;;;;;0.80;0.80;;;;;;;34.95;18.78;99499.55;1659882;86;21234;-73
2022/06/18 10:21:14;;;;;;;2.15;1.98;;;;;;;34.17;18.94;99503.55;1663364;85;21556;-72
2022/06/18 10:24:09;;;;;;;0.70;0.70;;;;;;;33.29;20.22;99506.16;1683558;85;20960;-73
2022/06/18 10:26:56;;;;;;;1.00;0.72;;;;;;;32.77;20.74;99499.57;1683635;85;21465;-73
2022/06/18 10:29:37;;;;;;;1.17;0.65;;;;;;;32.31;21.38;99506.19;1683471;83;20951;-73
2022/06/18 10:32:41;;;;;;;1.57;0.90;;;;;;;32.10;22.19;99501.47;1683547;83;21146;-73
2022/06/18 10:35:38;;;;;;;4.05;1.10;;;;;;;31.96;22.15;99508.93;1655432;85;20872;-74
2022/06/18 10:38:30;;;;;;;1.32;0.60;;;;;;;31.69;22.57;99503.74;1670622;85;21016;-73
2022/06/18 10:41:05;;;;;;;1.02;0.90;;;;;;;31.44;22.94;99502.88;1683196;84;20975;-73
2022/06/18 10:44:01;;;;;;;1.50;0.70;;;;;;;31.26;23.40;99497.48;1653829;85;21030;-72
2022/06/18 10:46:27;;;;;;;1.10;0.70;;;;;;;31.01;23.81;99500.16;1683633;85;21294;-73
2022/06/18 10:49:00;;;;;;;1.00;1.00;;;;;;;30.72;23.94;99494.06;1683674;85;20978;-73
2022/06/18 10:51:29;;;;;;;1.60;1.50;;;;;;;30.47;24.09;99499.45;1683131;85;21045;-72
2022/06/18 10:53:58;;;;;;;1.17;1.17;;;;;;;30.17;24.44;99497.97;1663716;85;20998;-72
2022/06/18 10:56:28;;;;;;;1.32;0.90;;;;;;;29.93;24.71;99495.88;1683599;83;21072;-74
2022/06/18 10:59:01;;;;;;;1.17;0.90;;;;;;;29.80;25.22;99496.62;1683620;85;21959;-73
2022/06/18 11:01:44;;;;;;;1.27;1.17;;;;;;;29.84;25.75;99492.16;1683574;85;21524;-73
2022/06/18 11:04:26;;;;;;;2.60;0.90;;;;;;;29.85;26.10;99490.48;1666932;85;20944;-73
2022/06/18 11:07:02;;;;;;;0.80;0.80;;;;;;;29.84;26.09;99484.75;1683562;85;21154;-72
2022/06/18 11:09:31;;;;;;;1.00;1.00;;;;;;;29.81;25.67;99482.60;1683615;85;20954;-74
2022/06/18 11:12:05;;;;;;;1.00;0.90;;;;;;;29.74;25.87;99485.42;1683545;83;21839;-72
2022/06/18 11:14:42;;;;;;;1.05;0.65;;;;;;;29.63;26.00;99485.29;1683555;85;21548;-73
2022/06/18 11:17:22;;;;;;;1.35;0.90;;;;;;;29.53;25.93;99482.14;1683761;85;21014;-73
2022/06/18 11:19:49;;;;;;;0.85;0.82;;;;;;;29.48;26.51;99480.02;1678721;85;20949;-73
2022/06/18 11:22:23;;;;;;;1.98;1.10;;;;;;;29.47;26.35;99481.11;1670256;86;20959;-73
2022/06/18 11:25:00;;;;;;;1.10;0.80;;;;;;;29.38;26.10;99473.30;1670326;85;20896;-73
2022/06/18 11:27:34;;;;;;;1.85;0.93;;;;;;;29.26;25.97;99466.30;1627902;88;21022;-73
2022/06/18 11:30:09;;;;;;;1.05;0.95;;;;;;;29.19;25.97;99459.52;1663828;85;20884;-73
2022/06/18 11:32:39;;;;;;;;;;;;;;;29.03;26.24;99468.47;1629000;88;21039;-73
2022/06/18 11:35:19;;;;;;;0.80;0.80;;;;;;;28.93;26.67;99460.37;1627761;88;20218;-73
2022/06/18 11:38:15;;;;;;;3.02;0.70;;;;;;;28.88;26.78;99454.13;1687542;85;21181;-72
2022/06/18 11:40:42;;;;;;;;;;;;;;;28.78;27.19;99458.59;1630077;87;21050;-73
2022/06/18 11:43:23;;;;;;;4.25;3.95;;;;;;;28.74;27.66;99455.36;1626407;86;25282;-72
2022/06/18 11:46:04;;;;;;;2.45;1.40;;;;;;;28.78;27.94;99457.80;1670251;86;21419;-72
2022/06/18 11:48:46;;;;;;;1.12;1.02;;;;;;;28.79;27.26;99453.94;1670258;86;21042;-73
2022/06/18 11:51:27;;;;;;;1.62;1.22;;;;;;;28.75;27.27;99459.19;1670232;86;21286;-74
2022/06/18 11:54:10;;;;;;;1.25;0.90;;;;;;;28.76;27.97;99455.33;1653183;86;20991;-73
2022/06/18 11:56:57;;;;;;;2.98;0.90;;;;;;;28.81;28.38;99447.61;1627865;88;21000;-72
2022/06/18 11:59:46;;;;;;;1.92;1.00;;;;;;;28.80;27.81;99454.21;1687598;84;20904;-73
2022/06/18 12:02:26;;;;;;;1.98;0.80;;;;;;;28.78;27.57;99448.77;1605221;88;21557;-73
2022/06/18 12:05:12;;;;;;;1.02;0.90;;;;;;;28.72;27.24;99451.55;1686522;85;21776;-72
2022/06/18 12:07:46;;;;;;;2.00;0.70;;;;;;;28.59;27.39;99448.09;1636650;86;21076;-74
2022/06/18 12:10:15;;;;;;;0.70;0.70;;;;;;;28.56;28.21;99443.20;1687254;82;21469;-74